Time;durP1;ratioP1;P1;durP2;ratioP2;P2;SDS_P1;SDS_P2;PMS_P1;PMS_P2;Temp;Humidity;BMP_temperature;BMP_pressure;BME280_temperature;BME280_humidity;BME280_pressure;Samples;Min_cycle;Max_cycle;Signal;HPM_P1;HPM_P2
2023/10/29 00:00:34;;;;;;;;;;;;;;;;;;4976220;28;19918;-74
2023/10/29 00:03:00;;;;;;;;;;;;;;;;;;4992098;28;19946;-74
2023/10/29 00:05:28;;;;;;;;;;;;;;;;;;4989865;28;19945;-74
2023/10/29 00:07:54;;;;;;;;;;;;;;;;;;4976228;28;19925;-74
2023/10/29 00:10:20;;;;;;;;;;;;;;;;;;4992379;28;19917;-73
2023/10/29 00:12:46;;;;;;;;;;;;;;;;;;4975903;28;19914;-74
2023/10/29 00:15:11;;;;;;;;;;;;;;;;;;4960413;28;19964;-74
2023/10/29 00:17:37;;;;;;;;;;;;;;;;;;4994059;28;20009;-74
2023/10/29 00:20:06;;;;;;;;;;;;;;;;;;4993853;28;19925;-73
2023/10/29 00:22:32;;;;;;;;;;;;;;;;;;4990603;28;19925;-74
2023/10/29 00:24:57;;;;;;;;;;;;;;;;;;4991838;28;19910;-75
2023/10/29 00:27:23;;;;;;;;;;;;;;;;;;4992846;28;19914;-74
2023/10/29 00:29:49;;;;;;;;;;;;;;;;;;4976574;28;20385;-74
2023/10/29 00:32:15;;;;;;;;;;;;;;;;;;4994376;28;20294;-73
2023/10/29 00:34:41;;;;;;;;;;;;;;;;;;4993432;28;20296;-74
2023/10/29 00:37:06;;;;;;;;;;;;;;;;;;4994621;28;20381;-73
2023/10/29 00:39:32;;;;;;;;;;;;;;;;;;4977666;28;20097;-73
2023/10/29 00:41:58;;;;;;;;;;;;;;;;;;4975424;28;20008;-74
2023/10/29 00:44:23;;;;;;;;;;;;;;;;;;4977047;28;19932;-74
2023/10/29 00:46:49;;;;;;;;;;;;;;;;;;4993093;28;19914;-74
2023/10/29 00:49:14;;;;;;;;;;;;;;;;;;4992851;28;19960;-74
2023/10/29 00:51:39;;;;;;;;;;;;;;;;;;4993813;28;20348;-74
2023/10/29 00:54:05;;;;;;;;;;;;;;;;;;4995112;28;20429;-74
2023/10/29 00:56:31;;;;;;;;;;;;;;;;;;4994846;28;19925;-73
2023/10/29 00:58:56;;;;;;;;;;;;;;;;;;4987822;28;19925;-73
2023/10/29 01:01:22;;;;;;;;;;;;;;;;;;4976887;28;19917;-73
2023/10/29 01:03:50;;;;;;;;;;;;;;;;;;4992930;28;19922;-73
2023/10/29 01:06:16;;;;;;;;;;;;;;;;;;4994423;28;20385;-73
2023/10/29 01:08:44;;;;;;;;;;;;;;;;;;4993105;28;20320;-73
2023/10/29 01:11:10;;;;;;;;;;;;;;;;;;4976997;28;19914;-73
2023/10/29 01:13:36;;;;;;;;;;;;;;;;;;4991034;28;20539;-73
2023/10/29 01:16:04;;;;;;;;;;;;;;;;;;4964928;28;20425;-74
2023/10/29 01:18:30;;;;;;;;;;;;;;;;;;4992611;28;20100;-75
2023/10/29 01:20:55;;;;;;;;;;;;;;;;;;4992411;28;19921;-74
2023/10/29 01:23:23;;;;;;;;;;;;;;;;;;4993493;28;20373;-74
2023/10/29 01:25:55;;;;;;;;;;;;;;;;;;4991056;28;20024;-75
2023/10/29 01:28:24;;;;;;;;;;;;;;;;;;4992286;28;20301;-75
2023/10/29 01:30:50;;;;;;;;;;;;;;;;;;4972163;28;19953;-75
2023/10/29 01:33:15;;;;;;;;;;;;;;;;;;4971975;28;19918;-75
2023/10/29 01:35:41;;;;;;;;;;;;;;;;;;4972428;28;20092;-75
2023/10/29 01:38:06;;;;;;;;;;;;;;;;;;4971863;28;19925;-73
2023/10/29 01:40:32;;;;;;;;;;;;;;;;;;4973209;28;20384;-73
2023/10/29 01:42:57;;;;;;;;;;;;;;;;;;4972076;28;20021;-74
2023/10/29 01:45:23;;;;;;;;;;;;;;;;;;4972722;28;19925;-73
2023/10/29 01:47:48;;;;;;;;;;;;;;;;;;4988481;28;19917;-74
2023/10/29 01:50:15;;;;;;;;;;;;;;;;;;4992109;28;20427;-74
2023/10/29 01:52:40;;;;;;;;;;;;;;;;;;4990855;28;19924;-73
2023/10/29 01:55:06;;;;;;;;;;;;;;;;;;4974994;28;20209;-73
2023/10/29 01:57:32;;;;;;;;;;;;;;;;;;4992496;28;19910;-74
2023/10/29 01:59:58;;;;;;;;;;;;;;;;;;4993357;28;19918;-74
2023/10/29 02:02:23;;;;;;;;;;;;;;;;;;4994695;28;20408;-74
2023/10/29 02:04:49;;;;;;;;;;;;;;;;;;4992029;28;19917;-74
2023/10/29 02:07:15;;;;;;;;;;;;;;;;;;4993960;28;19917;-74
2023/10/29 02:09:40;;;;;;;;;;;;;;;;;;4996224;28;20003;-74
2023/10/29 02:12:05;;;;;;;;;;;;;;;;;;4994939;28;20396;-74
2023/10/29 02:14:32;;;;;;;;;;;;;;;;;;4994704;28;19913;-74
2023/10/29 02:16:58;;;;;;;;;;;;;;;;;;4995080;28;19944;-74
2023/10/29 02:19:26;;;;;;;;;;;;;;;;;;4996139;28;19914;-74
2023/10/29 02:21:53;;;;;;;;;;;;;;;;;;4994855;28;19995;-74
2023/10/29 02:24:18;;;;;;;;;;;;;;;;;;4979190;28;20393;-73
2023/10/29 02:26:43;;;;;;;;;;;;;;;;;;4976487;28;19918;-73
2023/10/29 02:29:09;;;;;;;;;;;;;;;;;;4976061;28;19961;-74
2023/10/29 02:31:35;;;;;;;;;;;;;;;;;;4996044;28;19914;-74
2023/10/29 02:34:01;;;;;;;;;;;;;;;;;;4994163;28;19925;-74
2023/10/29 02:36:26;;;;;;;;;;;;;;;;;;4994681;28;19914;-74
2023/10/29 02:38:53;;;;;;;;;;;;;;;;;;4976941;28;20009;-74
2023/10/29 02:41:18;;;;;;;;;;;;;;;;;;4992026;28;19953;-74
2023/10/29 02:43:44;;;;;;;;;;;;;;;;;;4994602;28;20280;-73
2023/10/29 02:46:13;;;;;;;;;;;;;;;;;;4994079;28;20407;-73
2023/10/29 02:48:39;;;;;;;;;;;;;;;;;;4978056;28;20000;-74
2023/10/29 02:51:05;;;;;;;;;;;;;;;;;;4994520;28;19952;-74
2023/10/29 02:53:30;;;;;;;;;;;;;;;;;;4995057;28;19925;-74
2023/10/29 02:55:56;;;;;;;;;;;;;;;;;;4990642;28;19925;-74
2023/10/29 02:58:21;;;;;;;;;;;;;;;;;;4993520;28;20034;-74
2023/10/29 03:00:47;;;;;;;;;;;;;;;;;;4993455;28;19929;-74
2023/10/29 03:03:13;;;;;;;;;;;;;;;;;;4976796;28;19916;-74
2023/10/29 03:05:39;;;;;;;;;;;;;;;;;;4993236;28;19914;-73
2023/10/29 03:08:04;;;;;;;;;;;;;;;;;;4994320;28;20332;-73
2023/10/29 03:10:30;;;;;;;;;;;;;;;;;;4992791;28;20349;-73
2023/10/29 03:12:55;;;;;;;;;;;;;;;;;;4990606;28;19914;-73
2023/10/29 03:15:21;;;;;;;;;;;;;;;;;;4994839;28;19910;-74
2023/10/29 03:17:49;;;;;;;;;;;;;;;;;;4977573;28;19914;-74
2023/10/29 03:20:16;;;;;;;;;;;;;;;;;;4994722;28;19980;-74
2023/10/29 03:22:44;;;;;;;;;;;;;;;;;;4994952;28;20396;-74
2023/10/29 03:25:10;;;;;;;;;;;;;;;;;;4993757;28;19964;-73
2023/10/29 03:27:36;;;;;;;;;;;;;;;;;;4993598;28;20041;-74
2023/10/29 03:30:01;;;;;;;;;;;;;;;;;;4991443;28;20010;-74
2023/10/29 03:32:27;;;;;;;;;;;;;;;;;;4993082;28;19913;-73
2023/10/29 03:34:52;;;;;;;;;;;;;;;;;;4992388;28;19964;-73
2023/10/29 03:37:18;;;;;;;;;;;;;;;;;;4993007;28;19914;-72
2023/10/29 03:39:45;;;;;;;;;;;;;;;;;;4993854;28;19913;-74
2023/10/29 03:42:10;;;;;;;;;;;;;;;;;;4993680;28;19913;-73
2023/10/29 03:44:36;;;;;;;;;;;;;;;;;;4982998;28;19910;-74
2023/10/29 03:47:01;;;;;;;;;;;;;;;;;;4973493;28;19921;-73
2023/10/29 03:49:26;;;;;;;;;;;;;;;;;;4973260;28;20389;-73
2023/10/29 03:51:52;;;;;;;;;;;;;;;;;;4975990;28;19922;-72
2023/10/29 03:54:17;;;;;;;;;;;;;;;;;;4959074;28;19914;-73
2023/10/29 03:56:42;;;;;;;;;;;;;;;;;;4959204;28;19942;-73
2023/10/29 03:59:08;;;;;;;;;;;;;;;;;;4974559;28;19918;-73
2023/10/29 04:01:34;;;;;;;;;;;;;;;;;;4983949;28;19921;-73
2023/10/29 04:03:59;;;;;;;;;;;;;;;;;;4992428;28;19960;-73
2023/10/29 04:06:25;;;;;;;;;;;;;;;;;;4992813;28;19961;-73
2023/10/29 04:08:50;;;;;;;;;;;;;;;;;;4992730;28;19926;-73
2023/10/29 04:11:16;;;;;;;;;;;;;;;;;;4976976;28;19913;-73
2023/10/29 04:13:41;;;;;;;;;;;;;;;;;;4991658;28;19914;-73
2023/10/29 04:16:07;;;;;;;;;;;;;;;;;;4974423;28;19913;-73
2023/10/29 04:18:33;;;;;;;;;;;;;;;;;;5006401;28;19914;-73
2023/10/29 04:20:59;;;;;;;;;;;;;;;;;;4992611;28;19921;-74
2023/10/29 04:23:24;;;;;;;;;;;;;;;;;;4993861;28;19914;-73
2023/10/29 04:25:50;;;;;;;;;;;;;;;;;;4992630;28;20373;-74
2023/10/29 04:28:15;;;;;;;;;;;;;;;;;;4976787;28;20136;-72
2023/10/29 04:30:41;;;;;;;;;;;;;;;;;;4994862;28;19921;-73
2023/10/29 04:33:07;;;;;;;;;;;;;;;;;;4992317;28;19944;-73
2023/10/29 04:35:33;;;;;;;;;;;;;;;;;;4993992;28;19986;-73
2023/10/29 04:37:59;;;;;;;;;;;;;;;;;;4994370;28;19949;-73
2023/10/29 04:40:24;;;;;;;;;;;;;;;;;;4994354;28;20422;-73
2023/10/29 04:42:53;;;;;;;;;;;;;;;;;;4979489;28;19914;-73
2023/10/29 04:45:19;;;;;;;;;;;;;;;;;;4978578;28;19925;-73
2023/10/29 04:47:45;;;;;;;;;;;;;;;;;;4978138;28;19910;-73
2023/10/29 04:50:10;;;;;;;;;;;;;;;;;;4977840;28;20356;-74
2023/10/29 04:52:36;;;;;;;;;;;;;;;;;;4975202;28;19921;-74
2023/10/29 04:55:01;;;;;;;;;;;;;;;;;;4992625;28;19994;-74
2023/10/29 04:57:32;;;;;;;;;;;;;;;;;;4992452;28;20004;-74
2023/10/29 04:59:58;;;;;;;;;;;;;;;;;;4975338;28;19937;-74
2023/10/29 05:02:23;;;;;;;;;;;;;;;;;;4992137;28;19964;-73
2023/10/29 05:04:50;;;;;;;;;;;;;;;;;;4991548;28;19910;-72
2023/10/29 05:07:15;;;;;;;;;;;;;;;;;;4989303;28;20132;-72
2023/10/29 05:09:41;;;;;;;;;;;;;;;;;;5005171;28;20004;-73
2023/10/29 05:12:07;;;;;;;;;;;;;;;;;;4993157;28;20384;-74
2023/10/29 05:14:32;;;;;;;;;;;;;;;;;;4991608;28;19977;-73
2023/10/29 05:17:03;;;;;;;;;;;;;;;;;;4964893;28;19914;-73
2023/10/29 05:19:30;;;;;;;;;;;;;;;;;;4991962;28;19914;-73
2023/10/29 05:21:56;;;;;;;;;;;;;;;;;;4992391;28;19910;-74
2023/10/29 05:24:22;;;;;;;;;;;;;;;;;;4987781;28;19971;-74
2023/10/29 05:26:48;;;;;;;;;;;;;;;;;;4975572;28;19914;-74
2023/10/29 05:29:13;;;;;;;;;;;;;;;;;;5007946;28;19920;-73
2023/10/29 05:31:39;;;;;;;;;;;;;;;;;;5007828;28;20437;-73
2023/10/29 05:34:05;;;;;;;;;;;;;;;;;;5008507;28;19955;-74
2023/10/29 05:36:30;;;;;;;;;;;;;;;;;;5011326;28;19960;-73
2023/10/29 05:38:56;;;;;;;;;;;;;;;;;;4994796;28;20000;-74
2023/10/29 05:41:24;;;;;;;;;;;;;;;;;;5009276;28;19914;-74
2023/10/29 05:43:51;;;;;;;;;;;;;;;;;;4983483;28;19925;-74
2023/10/29 05:46:16;;;;;;;;;;;;;;;;;;4978559;28;20377;-74
2023/10/29 05:48:42;;;;;;;;;;;;;;;;;;4995895;28;20413;-74
2023/10/29 05:51:12;;;;;;;;;;;;;;;;;;4978582;28;20408;-74
2023/10/29 05:53:39;;;;;;;;;;;;;;;;;;4978728;28;20246;-74
2023/10/29 05:56:04;;;;;;;;;;;;;;;;;;4978632;28;19940;-72
2023/10/29 05:58:30;;;;;;;;;;;;;;;;;;4996115;28;19918;-74
2023/10/29 06:00:55;;;;;;;;;;;;;;;;;;4994845;28;19918;-73
2023/10/29 06:03:21;;;;;;;;;;;;;;;;;;4978780;28;20228;-73
2023/10/29 06:05:47;;;;;;;;;;;;;;;;;;4994934;28;19922;-73
2023/10/29 06:08:12;;;;;;;;;;;;;;;;;;4978405;28;20411;-74
2023/10/29 06:10:38;;;;;;;;;;;;;;;;;;4991392;28;19921;-74
2023/10/29 06:13:03;;;;;;;;;;;;;;;;;;4995649;28;19913;-71
2023/10/29 06:15:29;;;;;;;;;;;;;;;;;;4978432;28;19921;-74
2023/10/29 06:17:54;;;;;;;;;;;;;;;;;;4994744;28;19920;-74
2023/10/29 06:20:21;;;;;;;;;;;;;;;;;;4996475;28;19925;-74
2023/10/29 06:22:51;;;;;;;;;;;;;;;;;;4994675;28;19972;-73
2023/10/29 06:25:17;;;;;;;;;;;;;;;;;;4992757;28;19914;-73
2023/10/29 06:27:43;;;;;;;;;;;;;;;;;;5006196;28;19913;-73
2023/10/29 06:30:08;;;;;;;;;;;;;;;;;;4994155;28;19914;-73
2023/10/29 06:32:34;;;;;;;;;;;;;;;;;;4994279;28;19914;-73
2023/10/29 06:35:02;;;;;;;;;;;;;;;;;;5010260;28;19913;-73
2023/10/29 06:37:29;;;;;;;;;;;;;;;;;;4978518;28;19957;-74
2023/10/29 06:39:55;;;;;;;;;;;;;;;;;;4994431;28;19926;-73
2023/10/29 06:42:20;;;;;;;;;;;;;;;;;;4980017;28;19922;-73
2023/10/29 06:44:47;;;;;;;;;;;;;;;;;;4974937;28;19944;-73
2023/10/29 06:47:16;;;;;;;;;;;;;;;;;;4996381;28;19936;-73
2023/10/29 06:49:42;;;;;;;;;;;;;;;;;;4997501;28;19944;-74
2023/10/29 06:52:07;;;;;;;;;;;;;;;;;;4997865;28;19910;-74
2023/10/29 06:54:34;;;;;;;;;;;;;;;;;;4980323;28;20419;-74
2023/10/29 06:56:59;;;;;;;;;;;;;;;;;;5012066;28;19914;-73
2023/10/29 06:59:25;;;;;;;;;;;;;;;;;;4994189;28;20076;-73
2023/10/29 07:01:52;;;;;;;;;;;;;;;;;;5010181;28;19918;-73
2023/10/29 07:04:17;;;;;;;;;;;;;;;;;;4975195;28;19925;-73
2023/10/29 07:06:44;;;;;;;;;;;;;;;;;;4979519;28;20296;-73
2023/10/29 07:09:09;;;;;;;;;;;;;;;;;;4973540;28;19920;-74
2023/10/29 07:11:36;;;;;;;;;;;;;;;;;;4973526;28;20000;-73
2023/10/29 07:14:02;;;;;;;;;;;;;;;;;;4973416;28;19965;-74
2023/10/29 07:16:28;;;;;;;;;;;;;;;;;;4973368;28;19944;-74
2023/10/29 07:18:53;;;;;;;;;;;;;;;;;;4957271;28;19914;-73
2023/10/29 07:21:18;;;;;;;;;;;;;;;;;;4976744;28;19913;-74
2023/10/29 07:23:44;;;;;;;;;;;;;;;;;;4988143;28;19937;-74
2023/10/29 07:26:10;;;;;;;;;;;;;;;;;;5005440;28;19921;-73
2023/10/29 07:28:35;;;;;;;;;;;;;;;;;;4989630;28;19981;-74
2023/10/29 07:31:00;;;;;;;;;;;;;;;;;;4989439;28;19922;-74
2023/10/29 07:33:26;;;;;;;;;;;;;;;;;;4974396;28;20005;-73
2023/10/29 07:35:54;;;;;;;;;;;;;;;;;;4973863;28;19993;-74
2023/10/29 07:38:20;;;;;;;;;;;;;;;;;;4979120;28;19914;-75
2023/10/29 07:40:45;;;;;;;;;;;;;;;;;;4993770;28;19914;-75
2023/10/29 07:43:11;;;;;;;;;;;;;;;;;;4992453;28;19969;-74
2023/10/29 07:45:37;;;;;;;;;;;;;;;;;;4992381;28;19973;-76
2023/10/29 07:48:02;;;;;;;;;;;;;;;;;;4993898;28;19961;-75
2023/10/29 07:50:28;;;;;;;;;;;;;;;;;;4994627;28;19964;-80
2023/10/29 07:52:53;;;;;;;;;;;;;;;;;;4987225;28;19917;-80
2023/10/29 07:55:19;;;;;;;;;;;;;;;;;;4983190;28;20063;-80
2023/10/29 07:57:44;;;;;;;;;;;;;;;;;;4985493;28;19914;-80
2023/10/29 08:00:10;;;;;;;;;;;;;;;;;;4986493;28;19932;-80
2023/10/29 08:02:38;;;;;;;;;;;;;;;;;;4994659;28;19969;-75
2023/10/29 08:05:04;;;;;;;;;;;;;;;;;;4974945;28;20365;-76
2023/10/29 08:07:32;;;;;;;;;;;;;;;;;;4959319;28;19913;-75
2023/10/29 08:09:57;;;;;;;;;;;;;;;;;;4977986;28;19914;-76
2023/10/29 08:12:23;;;;;;;;;;;;;;;;;;4972589;28;19926;-77
2023/10/29 08:14:48;;;;;;;;;;;;;;;;;;4972237;28;19941;-77
2023/10/29 08:17:17;;;;;;;;;;;;;;;;;;4972904;28;19938;-75
2023/10/29 08:19:42;;;;;;;;;;;;;;;;;;4972404;28;19920;-76
2023/10/29 08:22:07;;;;;;;;;;;;;;;;;;4972361;28;19914;-76
2023/10/29 08:24:33;;;;;;;;;;;;;;;;;;4974710;28;20113;-76
2023/10/29 08:26:59;;;;;;;;;;;;;;;;;;4987342;28;20373;-76
2023/10/29 08:29:24;;;;;;;;;;;;;;;;;;4991970;28;19914;-76
2023/10/29 08:31:52;;;;;;;;;;;;;;;;;;4991969;28;19920;-76
2023/10/29 08:34:18;;;;;;;;;;;;;;;;;;5008046;28;20008;-75
2023/10/29 08:36:46;;;;;;;;;;;;;;;;;;4975584;28;21861;-75
2023/10/29 08:39:13;;;;;;;;;;;;;;;;;;4991136;28;19913;-74
2023/10/29 08:41:38;;;;;;;;;;;;;;;;;;4983155;28;19992;-74
2023/10/29 08:44:04;;;;;;;;;;;;;;;;;;4974970;28;20013;-74
2023/10/29 08:46:29;;;;;;;;;;;;;;;;;;4974961;28;19910;-73
2023/10/29 08:48:55;;;;;;;;;;;;;;;;;;4975361;28;19921;-74
2023/10/29 08:51:20;;;;;;;;;;;;;;;;;;4991425;28;20404;-73
2023/10/29 08:53:49;;;;;;;;;;;;;;;;;;4991703;28;19964;-73
2023/10/29 08:56:15;;;;;;;;;;;;;;;;;;4976182;28;19914;-73
2023/10/29 08:58:40;;;;;;;;;;;;;;;;;;4989790;28;19926;-73
2023/10/29 09:01:06;;;;;;;;;;;;;;;;;;4983681;28;20341;-74
2023/10/29 09:03:31;;;;;;;;;;;;;;;;;;4988167;28;19918;-74
2023/10/29 09:05:57;;;;;;;;;;;;;;;;;;4971811;28;19918;-75
2023/10/29 09:08:22;;;;;;;;;;;;;;;;;;5003600;28;19938;-74
2023/10/29 09:10:55;;;;;;;;;;;;;;;;;;4978643;28;20013;-74
2023/10/29 09:13:23;;;;;;;;;;;;;;;;;;4992409;28;20068;-74
2023/10/29 09:15:49;;;;;;;;;;;;;;;;;;4988569;28;20385;-74
2023/10/29 09:18:14;;;;;;;;;;;;;;;;;;4974935;28;19909;-74
2023/10/29 09:20:40;;;;;;;;;;;;;;;;;;4991310;28;19996;-74
2023/10/29 09:23:05;;;;;;;;;;;;;;;;;;4992185;28;19913;-74
2023/10/29 09:25:30;;;;;;;;;;;;;;;;;;4990989;28;19924;-73
2023/10/29 09:28:06;;;;;;;;;;;;;;;;;;4991297;28;20280;-74
2023/10/29 09:30:31;;;;;;;;;;;;;;;;;;4991304;28;20000;-74
2023/10/29 09:33:00;;;;;;;;;;;;;;;;;;4966266;28;20239;-73
2023/10/29 09:35:29;;;;;;;;;;;;;;;;;;4956066;28;19922;-74
2023/10/29 09:37:54;;;;;;;;;;;;;;;;;;4955334;28;19962;-74
2023/10/29 09:40:23;;;;;;;;;;;;;;;;;;4973525;28;20009;-73
2023/10/29 09:42:49;;;;;;;;;;;;;;;;;;4987789;28;20432;-73
2023/10/29 09:45:19;;;;;;;;;;;;;;;;;;4972117;28;19918;-73
2023/10/29 09:47:44;;;;;;;;;;;;;;;;;;4973157;28;20290;-73
2023/10/29 09:50:09;;;;;;;;;;;;;;;;;;4986207;28;19914;-73
2023/10/29 09:52:35;;;;;;;;;;;;;;;;;;4990452;28;19914;-74
2023/10/29 09:55:04;;;;;;;;;;;;;;;;;;4990387;28;20009;-74
2023/10/29 09:57:30;;;;;;;;;;;;;;;;;;4990096;28;19961;-74
2023/10/29 09:59:56;;;;;;;;;;;;;;;;;;4986940;28;20424;-73
2023/10/29 10:02:22;;;;;;;;;;;;;;;;;;4996448;28;19928;-74
2023/10/29 10:04:47;;;;;;;;;;;;;;;;;;4986529;28;19957;-74
2023/10/29 10:07:13;;;;;;;;;;;;;;;;;;4991603;28;20044;-74
2023/10/29 10:09:38;;;;;;;;;;;;;;;;;;4970306;28;19920;-74
2023/10/29 10:12:07;;;;;;;;;;;;;;;;;;5012610;28;19914;-74
2023/10/29 10:14:33;;;;;;;;;;;;;;;;;;4994421;28;19924;-74
2023/10/29 10:16:58;;;;;;;;;;;;;;;;;;4994395;28;19921;-74
2023/10/29 10:19:24;;;;;;;;;;;;;;;;;;4997571;28;20377;-74
2023/10/29 10:21:52;;;;;;;;;;;;;;;;;;4996484;28;19914;-74
2023/10/29 10:24:19;;;;;;;;;;;;;;;;;;4996732;28;19936;-73
2023/10/29 10:26:44;;;;;;;;;;;;;;;;;;4996816;28;19917;-73
2023/10/29 10:29:10;;;;;;;;;;;;;;;;;;4996280;28;19972;-74
2023/10/29 10:31:35;;;;;;;;;;;;;;;;;;4995814;28;19961;-73
2023/10/29 10:34:01;;;;;;;;;;;;;;;;;;4996210;28;20365;-74
2023/10/29 10:36:26;;;;;;;;;;;;;;;;;;4997625;28;19909;-74
2023/10/29 10:38:52;;;;;;;;;;;;;;;;;;4982126;28;19960;-74
2023/10/29 10:41:17;;;;;;;;;;;;;;;;;;5000460;28;19914;-75
2023/10/29 10:43:43;;;;;;;;;;;;;;;;;;4983403;28;20337;-74
2023/10/29 10:46:08;;;;;;;;;;;;;;;;;;5001167;28;19914;-74
2023/10/29 10:48:34;;;;;;;;;;;;;;;;;;4998823;28;19914;-74
2023/10/29 10:50:59;;;;;;;;;;;;;;;;;;4999216;28;19909;-75
2023/10/29 10:53:25;;;;;;;;;;;;;;;;;;4998081;28;19918;-75
2023/10/29 10:55:51;;;;;;;;;;;;;;;;;;4984281;28;19953;-74
2023/10/29 10:58:16;;;;;;;;;;;;;;;;;;4975324;28;19915;-74
2023/10/29 11:00:41;;;;;;;;;;;;;;;;;;4982847;28;19944;-74
2023/10/29 11:03:07;;;;;;;;;;;;;;;;;;4994295;28;19913;-76
2023/10/29 11:05:33;;;;;;;;;;;;;;;;;;5009898;28;19914;-73
2023/10/29 11:07:59;;;;;;;;;;;;;;;;;;4992808;28;19914;-74
2023/10/29 11:10:25;;;;;;;;;;;;;;;;;;5010591;28;19921;-74
2023/10/29 11:12:51;;;;;;;;;;;;;;;;;;4978186;28;19925;-74
2023/10/29 11:15:16;;;;;;;;;;;;;;;;;;4995942;28;20344;-75
2023/10/29 11:17:45;;;;;;;;;;;;;;;;;;4996120;28;19967;-73
2023/10/29 11:20:10;;;;;;;;;;;;;;;;;;5010583;28;19914;-73
2023/10/29 11:22:39;;;;;;;;;;;;;;;;;;4995156;28;20369;-75
2023/10/29 11:25:05;;;;;;;;;;;;;;;;;;4993492;28;20336;-75
2023/10/29 11:27:30;;;;;;;;;;;;;;;;;;4977732;28;19910;-73
2023/10/29 11:29:56;;;;;;;;;;;;;;;;;;4994688;28;19989;-75
2023/10/29 11:32:22;;;;;;;;;;;;;;;;;;4992310;28;20391;-73
2023/10/29 11:34:50;;;;;;;;;;;;;;;;;;4994127;28;19917;-75
2023/10/29 11:37:15;;;;;;;;;;;;;;;;;;4993175;28;19941;-75
2023/10/29 11:39:43;;;;;;;;;;;;;;;;;;4993085;28;19963;-74
2023/10/29 11:42:09;;;;;;;;;;;;;;;;;;4993292;28;20336;-75
2023/10/29 11:44:34;;;;;;;;;;;;;;;;;;4976375;28;19914;-75
2023/10/29 11:47:03;;;;;;;;;;;;;;;;;;4994714;28;19925;-73
2023/10/29 11:49:29;;;;;;;;;;;;;;;;;;4993349;28;19965;-75
2023/10/29 11:51:55;;;;;;;;;;;;;;;;;;4994445;28;19914;-73
2023/10/29 11:54:21;;;;;;;;;;;;;;;;;;4992631;28;19918;-73
2023/10/29 11:56:47;;;;;;;;;;;;;;;;;;4974355;28;20058;-75
2023/10/29 11:59:12;;;;;;;;;;;;;;;;;;4975411;28;19921;-73
2023/10/29 12:01:40;;;;;;;;;;;;;;;;;;4990683;28;19918;-74
2023/10/29 12:04:06;;;;;;;;;;;;;;;;;;4993324;28;20009;-73
2023/10/29 12:06:33;;;;;;;;;;;;;;;;;;5009757;28;19961;-73
2023/10/29 12:08:59;;;;;;;;;;;;;;;;;;4976420;28;19997;-73
2023/10/29 12:11:24;;;;;;;;;;;;;;;;;;4992999;28;19921;-73
2023/10/29 12:13:50;;;;;;;;;;;;;;;;;;4993629;28;19925;-75
2023/10/29 12:16:15;;;;;;;;;;;;;;;;;;4992113;28;20424;-75
2023/10/29 12:18:40;;;;;;;;;;;;;;;;;;4993521;28;19910;-74
2023/10/29 12:21:09;;;;;;;;;;;;;;;;;;4993679;28;19923;-74
2023/10/29 12:23:35;;;;;;;;;;;;;;;;;;4992721;28;19914;-75
2023/10/29 12:26:01;;;;;;;;;;;;;;;;;;5008319;28;20365;-75
2023/10/29 12:28:26;;;;;;;;;;;;;;;;;;4992814;28;19914;-74
2023/10/29 12:30:52;;;;;;;;;;;;;;;;;;4976209;28;19985;-75
2023/10/29 12:33:20;;;;;;;;;;;;;;;;;;4992034;28;19914;-74
2023/10/29 12:35:49;;;;;;;;;;;;;;;;;;4975793;28;19955;-74
2023/10/29 12:38:14;;;;;;;;;;;;;;;;;;4993463;28;20320;-75
2023/10/29 12:40:40;;;;;;;;;;;;;;;;;;4992379;28;19964;-75
2023/10/29 12:43:05;;;;;;;;;;;;;;;;;;4993327;28;19985;-75
2023/10/29 12:45:35;;;;;;;;;;;;;;;;;;4991586;28;19924;-75
2023/10/29 12:48:04;;;;;;;;;;;;;;;;;;4992492;28;20425;-75
2023/10/29 12:50:30;;;;;;;;;;;;;;;;;;4992032;28;19910;-75
2023/10/29 12:52:55;;;;;;;;;;;;;;;;;;4991946;28;20320;-75
2023/10/29 12:55:21;;;;;;;;;;;;;;;;;;4992619;28;20035;-74
2023/10/29 12:57:47;;;;;;;;;;;;;;;;;;4991638;28;20221;-74
2023/10/29 13:00:15;;;;;;;;;;;;;;;;;;5007577;28;19925;-74
2023/10/29 13:02:41;;;;;;;;;;;;;;;;;;4993421;28;19917;-74
2023/10/29 13:05:11;;;;;;;;;;;;;;;;;;4992498;28;19913;-74
2023/10/29 13:07:40;;;;;;;;;;;;;;;;;;4992716;28;20004;-75
2023/10/29 13:10:07;;;;;;;;;;;;;;;;;;4992284;28;19913;-74
2023/10/29 13:12:33;;;;;;;;;;;;;;;;;;4992585;28;19965;-74
2023/10/29 13:14:59;;;;;;;;;;;;;;;;;;4992169;28;19917;-75
2023/10/29 13:17:24;;;;;;;;;;;;;;;;;;4976381;28;20093;-74
2023/10/29 13:19:50;;;;;;;;;;;;;;;;;;4992227;28;19941;-74
2023/10/29 13:22:17;;;;;;;;;;;;;;;;;;5008999;28;19914;-74
2023/10/29 13:24:43;;;;;;;;;;;;;;;;;;4993503;28;19916;-74
2023/10/29 13:27:09;;;;;;;;;;;;;;;;;;4993819;28;19921;-74
2023/10/29 13:29:37;;;;;;;;;;;;;;;;;;4976541;28;19914;-74
2023/10/29 13:32:03;;;;;;;;;;;;;;;;;;4992973;28;19914;-73
2023/10/29 13:34:29;;;;;;;;;;;;;;;;;;4993445;28;19932;-74
2023/10/29 13:36:54;;;;;;;;;;;;;;;;;;4976837;28;19914;-73
2023/10/29 13:39:21;;;;;;;;;;;;;;;;;;4960915;28;19921;-75
2023/10/29 13:41:48;;;;;;;;;;;;;;;;;;4976743;28;19913;-73
2023/10/29 13:44:15;;;;;;;;;;;;;;;;;;4993978;28;19914;-73
2023/10/29 13:46:41;;;;;;;;;;;;;;;;;;4992653;28;20285;-73
2023/10/29 13:49:06;;;;;;;;;;;;;;;;;;4993960;28;19913;-73
2023/10/29 13:51:35;;;;;;;;;;;;;;;;;;4994032;28;20397;-74
2023/10/29 13:54:00;;;;;;;;;;;;;;;;;;4991392;28;19918;-74
2023/10/29 13:56:27;;;;;;;;;;;;;;;;;;4976154;28;19914;-74
2023/10/29 13:58:52;;;;;;;;;;;;;;;;;;4978801;28;20374;-74
2023/10/29 14:01:18;;;;;;;;;;;;;;;;;;4946098;28;20242;-74
2023/10/29 14:03:43;;;;;;;;;;;;;;;;;;4962899;28;19918;-73
2023/10/29 14:06:10;;;;;;;;;;;;;;;;;;4969632;28;19914;-74
2023/10/29 14:08:35;;;;;;;;;;;;;;;;;;4998164;28;19910;-74
2023/10/29 14:11:03;;;;;;;;;;;;;;;;;;4997790;28;20276;-75
2023/10/29 14:13:29;;;;;;;;;;;;;;;;;;4997924;28;19933;-73
2023/10/29 14:15:54;;;;;;;;;;;;;;;;;;4998955;28;19957;-74
2023/10/29 14:18:22;;;;;;;;;;;;;;;;;;4997364;28;19921;-74
2023/10/29 14:20:48;;;;;;;;;;;;;;;;;;4981381;28;20381;-74
2023/10/29 14:23:13;;;;;;;;;;;;;;;;;;4981773;28;20330;-74
2023/10/29 14:25:42;;;;;;;;;;;;;;;;;;4997997;28;19994;-74
2023/10/29 14:28:07;;;;;;;;;;;;;;;;;;4963766;28;19914;-74
2023/10/29 14:30:33;;;;;;;;;;;;;;;;;;4995854;28;19909;-74
2023/10/29 14:32:59;;;;;;;;;;;;;;;;;;4979790;28;19937;-73
2023/10/29 14:35:25;;;;;;;;;;;;;;;;;;4995757;28;20380;-74
2023/10/29 14:37:52;;;;;;;;;;;;;;;;;;4963254;28;20435;-75
2023/10/29 14:40:20;;;;;;;;;;;;;;;;;;4995248;28;19972;-75
2023/10/29 14:42:49;;;;;;;;;;;;;;;;;;4979466;28;20472;-75
2023/10/29 14:45:15;;;;;;;;;;;;;;;;;;4962984;28;19913;-75
2023/10/29 14:47:40;;;;;;;;;;;;;;;;;;4979341;28;20281;-75
2023/10/29 14:50:06;;;;;;;;;;;;;;;;;;4978388;28;20425;-75
2023/10/29 14:52:32;;;;;;;;;;;;;;;;;;4979176;28;19921;-75
2023/10/29 14:55:01;;;;;;;;;;;;;;;;;;4989358;28;20012;-73
2023/10/29 14:57:27;;;;;;;;;;;;;;;;;;4959291;28;19917;-73
2023/10/29 14:59:55;;;;;;;;;;;;;;;;;;4991539;28;19925;-73
2023/10/29 15:02:20;;;;;;;;;;;;;;;;;;4975970;28;20060;-76
2023/10/29 15:04:48;;;;;;;;;;;;;;;;;;4975117;28;20000;-76
2023/10/29 15:07:13;;;;;;;;;;;;;;;;;;4975491;28;20404;-77
2023/10/29 15:09:43;;;;;;;;;;;;;;;;;;4977561;28;19914;-78
2023/10/29 15:12:08;;;;;;;;;;;;;;;;;;4978828;28;19921;-77
2023/10/29 15:14:37;;;;;;;;;;;;;;;;;;4978125;28;19918;-78
2023/10/29 15:17:06;;;;;;;;;;;;;;;;;;4962716;28;19914;-77
2023/10/29 15:19:32;;;;;;;;;;;;;;;;;;4960635;28;20290;-74
2023/10/29 15:21:57;;;;;;;;;;;;;;;;;;4976297;28;19914;-74
2023/10/29 15:24:23;;;;;;;;;;;;;;;;;;4974823;28;19922;-74
2023/10/29 15:26:48;;;;;;;;;;;;;;;;;;4975871;28;19937;-75
2023/10/29 15:31:48;;;;;;;;;;;;;;;;;;4978560;28;19938;-79
2023/10/29 15:34:13;;;;;;;;;;;;;;;;;;4996894;28;19981;-78
2023/10/29 15:36:39;;;;;;;;;;;;;;;;;;4984308;28;19910;-79
2023/10/29 15:39:04;;;;;;;;;;;;;;;;;;4990104;28;20297;-81
2023/10/29 15:41:30;;;;;;;;;;;;;;;;;;4993267;28;19914;-79
2023/10/29 15:43:58;;;;;;;;;;;;;;;;;;4994913;28;19910;-79
2023/10/29 15:46:23;;;;;;;;;;;;;;;;;;4997967;28;19945;-78
2023/10/29 15:48:49;;;;;;;;;;;;;;;;;;4997605;28;19930;-78
2023/10/29 15:51:36;;;;;;;;;;;;;;;;;;4979784;28;19922;-79
2023/10/29 15:54:01;;;;;;;;;;;;;;;;;;4973000;28;19923;-79
2023/10/29 15:56:29;;;;;;;;;;;;;;;;;;4976747;28;19984;-79
2023/10/29 15:58:58;;;;;;;;;;;;;;;;;;4966747;28;19914;-78
2023/10/29 16:01:26;;;;;;;;;;;;;;;;;;4958160;28;19918;-77
2023/10/29 16:03:54;;;;;;;;;;;;;;;;;;4956443;28;20421;-78
2023/10/29 16:06:20;;;;;;;;;;;;;;;;;;4959341;29;19942;-79
2023/10/29 16:08:45;;;;;;;;;;;;;;;;;;4959873;29;19942;-78
2023/10/29 16:11:12;;;;;;;;;;;;;;;;;;4946967;29;19914;-78
2023/10/29 16:13:37;;;;;;;;;;;;;;;;;;4952515;29;19958;-78
2023/10/29 16:16:05;;;;;;;;;;;;;;;;;;4968487;29;19926;-79
2023/10/29 16:18:31;;;;;;;;;;;;;;;;;;4955305;29;19954;-79
2023/10/29 16:20:57;;;;;;;;;;;;;;;;;;4970941;29;19993;-79
2023/10/29 16:23:25;;;;;;;;;;;;;;;;;;4964302;29;20421;-79
2023/10/29 16:25:51;;;;;;;;;;;;;;;;;;4952923;29;19914;-78
2023/10/29 16:28:16;;;;;;;;;;;;;;;;;;4951269;29;19995;-79
2023/10/29 16:30:41;;;;;;;;;;;;;;;;;;4943082;28;19923;-77
2023/10/29 16:33:07;;;;;;;;;;;;;;;;;;4940745;29;19922;-78
2023/10/29 16:35:35;;;;;;;;;;;;;;;;;;4940082;29;19919;-79
2023/10/29 16:38:01;;;;;;;;;;;;;;;;;;4941640;29;20020;-79
2023/10/29 16:40:26;;;;;;;;;;;;;;;;;;4946707;29;19962;-78